Time;durP1;ratioP1;P1;durP2;ratioP2;P2;SDS_P1;SDS_P2;PMS_P1;PMS_P2;Temp;Humidity;BMP_temperature;BMP_pressure;BME280_temperature;BME280_humidity;BME280_pressure;Samples;Min_cycle;Max_cycle;Signal;HPM_P1;HPM_P2
2021/03/21 00:02:02;;;;;;;4.23;2.00;;;5.30;52.00;;;;;;6218579;23;20038;-76
2021/03/21 00:04:28;;;;;;;3.77;2.00;;;5.20;52.00;;;;;;6245177;23;20423;-77
2021/03/21 00:06:53;;;;;;;3.27;2.07;;;5.20;52.10;;;;;;6216800;23;20004;-76
2021/03/21 00:09:19;;;;;;;5.37;2.03;;;5.10;52.00;;;;;;6217732;23;20000;-76
2021/03/21 00:11:45;;;;;;;4.00;2.20;;;5.10;52.30;;;;;;6217551;23;20004;-76
2021/03/21 00:14:10;;;;;;;4.40;2.10;;;5.20;52.00;;;;;;6217971;23;20004;-76
2021/03/21 00:16:36;;;;;;;3.67;2.00;;;5.10;52.10;;;;;;6217483;23;20012;-76
2021/03/21 00:19:04;;;;;;;2.77;1.90;;;5.20;51.90;;;;;;6245043;23;20000;-76
2021/03/21 00:21:30;;;;;;;3.53;2.00;;;5.10;52.20;;;;;;6218471;23;20015;-76
2021/03/21 00:23:55;;;;;;;4.10;2.00;;;5.10;52.60;;;;;;6217406;23;20023;-76
2021/03/21 00:26:21;;;;;;;3.13;1.93;;;5.10;53.00;;;;;;6217343;23;20426;-76
2021/03/21 00:28:46;;;;;;;4.50;2.43;;;5.10;53.20;;;;;;6243645;23;20070;-76
2021/03/21 00:31:14;;;;;;;3.63;2.23;;;5.00;53.10;;;;;;6218143;23;20012;-76
2021/03/21 00:33:41;;;;;;;4.03;2.40;;;5.10;52.90;;;;;;6217069;23;20004;-76
2021/03/21 00:36:12;;;;;;;4.67;2.63;;;5.10;52.80;;;;;;6244912;23;20006;-77
2021/03/21 00:38:47;;;;;;;4.45;2.40;;;5.10;52.20;;;;;;6217487;23;20000;-76
2021/03/21 00:41:15;;;;;;;6.83;2.83;;;5.20;52.10;;;;;;6215914;23;20381;-77
2021/03/21 00:43:41;;;;;;;5.00;2.57;;;5.20;52.00;;;;;;6243931;23;20035;-77
2021/03/21 00:46:08;;;;;;;5.60;2.50;;;5.20;52.00;;;;;;6213117;23;20016;-76
2021/03/21 00:48:38;;;;;;;6.00;2.80;;;5.10;52.30;;;;;;6214647;23;20001;-77
2021/03/21 00:51:04;;;;;;;4.43;2.70;;;5.20;51.80;;;;;;6213131;23;20088;-76
2021/03/21 00:53:30;;;;;;;6.67;2.50;;;5.20;52.00;;;;;;6213247;23;20070;-76
2021/03/21 00:55:56;;;;;;;5.73;3.17;;;5.10;51.80;;;;;;6212275;23;19997;-76
2021/03/21 00:58:22;;;;;;;7.50;2.70;;;5.10;51.60;;;;;;6213101;23;20039;-77
2021/03/21 01:00:54;;;;;;;6.97;3.13;;;5.10;52.30;;;;;;6212115;23;20009;-76
2021/03/21 01:03:21;;;;;;;8.97;2.90;;;5.00;53.00;;;;;;6213207;23;20004;-77
2021/03/21 01:05:50;;;;;;;7.70;3.37;;;5.00;53.10;;;;;;6212355;23;20005;-77
2021/03/21 01:08:45;;;;;;;8.53;3.13;;;5.00;52.70;;;;;;6212697;23;20011;-76
2021/03/21 01:11:21;;;;;;;6.60;2.70;;;5.00;53.10;;;;;;6181115;23;20455;-77
2021/03/21 01:13:47;;;;;;;6.40;2.63;;;5.00;52.90;;;;;;6211957;23;20005;-76
2021/03/21 01:16:25;;;;;;;4.73;2.73;;;5.00;53.10;;;;;;6212917;23;20075;-77
2021/03/21 01:18:52;;;;;;;4.50;2.53;;;5.00;53.70;;;;;;6213674;23;20007;-76
2021/03/21 01:21:19;;;;;;;8.37;2.80;;;5.00;53.60;;;;;;6214464;23;20032;-77
2021/03/21 01:23:45;;;;;;;7.33;3.03;;;5.00;53.30;;;;;;6211850;23;20001;-76
2021/03/21 01:26:17;;;;;;;5.83;3.20;;;5.00;53.90;;;;;;6212835;23;20005;-77
2021/03/21 01:28:44;;;;;;;4.65;2.90;;;5.00;53.90;;;;;;6213230;23;20135;-77
2021/03/21 01:31:13;;;;;;;6.63;2.73;;;4.90;54.20;;;;;;6213063;23;20036;-77
2021/03/21 01:33:39;;;;;;;5.60;2.80;;;4.90;54.20;;;;;;6212314;23;20031;-76
2021/03/21 01:36:09;;;;;;;7.57;3.47;;;4.90;53.50;;;;;;6212913;23;20000;-76
2021/03/21 01:38:34;;;;;;;5.50;3.17;;;4.90;53.70;;;;;;6212804;23;20001;-76
2021/03/21 01:41:04;;;;;;;5.47;2.70;;;5.00;53.70;;;;;;6211617;23;20091;-76
2021/03/21 01:43:35;;;;;;;5.97;3.00;;;5.00;54.00;;;;;;6213036;23;20058;-76
2021/03/21 01:46:03;;;;;;;8.43;3.30;;;5.00;53.90;;;;;;6217063;23;20047;-76
2021/03/21 01:48:58;;;;;;;5.67;2.90;;;4.90;53.30;;;;;;6218068;23;20011;-77
2021/03/21 01:51:36;;;;;;;4.80;2.90;;;4.90;53.80;;;;;;6243611;23;20014;-76
2021/03/21 01:54:06;;;;;;;5.90;2.97;;;4.80;53.70;;;;;;6217583;23;20006;-77
2021/03/21 01:56:34;;;;;;;5.30;3.13;;;4.80;54.10;;;;;;6218121;23;20004;-77
2021/03/21 01:59:23;;;;;;;6.27;3.10;;;4.90;53.90;;;;;;6243583;23;20423;-77
2021/03/21 02:01:50;;;;;;;5.23;3.03;;;4.90;53.90;;;;;;6216898;23;20004;-77
2021/03/21 02:04:17;;;;;;;4.60;3.30;;;4.80;53.60;;;;;;6244860;23;20411;-77
2021/03/21 02:07:10;;;;;;;7.83;3.73;;;4.80;54.40;;;;;;6216927;23;20000;-76
2021/03/21 02:09:40;;;;;;;6.60;3.17;;;4.80;53.80;;;;;;6244583;23;20054;-77
2021/03/21 02:12:42;;;;;;;6.10;3.13;;;4.80;53.50;;;;;;6218026;23;20061;-77
2021/03/21 02:15:18;;;;;;;7.47;3.43;;;4.80;54.00;;;;;;6217563;23;20032;-77
2021/03/21 02:17:57;;;;;;;8.50;3.27;;;4.80;53.30;;;;;;6217346;23;20001;-77
2021/03/21 02:20:48;;;;;;;5.90;3.30;;;4.80;53.20;;;;;;6220136;23;20004;-76
2021/03/21 02:23:47;;;;;;;6.30;3.00;;;4.70;53.00;;;;;;6246492;23;20047;-77
2021/03/21 02:26:31;;;;;;;7.43;3.23;;;4.70;53.20;;;;;;6220156;23;19996;-77
2021/03/21 02:29:03;;;;;;;5.63;3.07;;;4.80;53.30;;;;;;6218494;23;20323;-76
2021/03/21 02:31:37;;;;;;;6.75;3.28;;;4.70;52.80;;;;;;6219949;23;20004;-76
2021/03/21 02:34:45;;;;;;;7.57;3.40;;;4.70;52.60;;;;;;6218784;23;20007;-77
2021/03/21 02:37:27;;;;;;;8.43;3.63;;;4.70;52.60;;;;;;6170365;23;20004;-76
2021/03/21 02:40:06;;;;;;;7.60;3.10;;;4.70;52.50;;;;;;6218971;23;20003;-76
2021/03/21 02:42:37;;;;;;;7.23;3.40;;;4.60;51.90;;;;;;6219431;23;20012;-76
2021/03/21 02:45:13;;;;;;;10.23;3.70;;;4.60;52.20;;;;;;6218367;23;20008;-76
2021/03/21 02:47:41;;;;;;;9.03;3.23;;;4.60;52.00;;;;;;6219670;23;20081;-76
2021/03/21 02:50:34;;;;;;;5.57;2.97;;;4.60;51.20;;;;;;6245901;23;20000;-76
2021/03/21 02:53:30;;;;;;;4.80;3.03;;;4.60;50.90;;;;;;6218608;23;20435;-76
2021/03/21 02:56:00;;;;;;;8.43;3.90;;;4.60;50.90;;;;;;6185950;23;20004;-76
2021/03/21 02:58:29;;;;;;;6.27;3.07;;;4.50;51.00;;;;;;6245956;23;20083;-76
2021/03/21 03:01:03;;;;;;;6.83;3.10;;;4.50;51.10;;;;;;6218051;23;20170;-76
2021/03/21 03:03:31;;;;;;;4.73;2.77;;;4.50;51.20;;;;;;6219545;23;20361;-76
2021/03/21 03:06:09;;;;;;;4.87;3.07;;;4.50;51.30;;;;;;6218242;23;20008;-75
2021/03/21 03:08:43;;;;;;;5.20;2.70;;;4.50;51.80;;;;;;6219267;23;20034;-76
2021/03/21 03:11:16;;;;;;;4.97;3.10;;;4.50;52.50;;;;;;6218720;23;20010;-76
2021/03/21 03:13:45;;;;;;;8.43;3.27;;;4.50;52.60;;;;;;6219108;23;20007;-76
2021/03/21 03:16:23;;;;;;;4.37;2.80;;;4.50;52.60;;;;;;6245618;23;20475;-76
2021/03/21 03:19:00;;;;;;;6.10;2.90;;;4.50;52.70;;;;;;6218301;23;20008;-76
2021/03/21 03:21:36;;;;;;;5.77;2.57;;;4.50;52.50;;;;;;6219133;23;20015;-76
2021/03/21 03:24:11;;;;;;;7.70;3.10;;;4.50;52.60;;;;;;6244649;23;20004;-76
2021/03/21 03:26:40;;;;;;;4.90;3.00;;;4.50;52.40;;;;;;6219087;23;20023;-76
2021/03/21 03:29:18;;;;;;;5.37;2.83;;;4.50;52.40;;;;;;6218022;23;20528;-76
2021/03/21 03:31:49;;;;;;;5.03;2.77;;;4.50;52.60;;;;;;6218615;23;20011;-77
2021/03/21 03:34:16;;;;;;;5.07;2.88;;;4.50;52.40;;;;;;6245525;23;20011;-76
2021/03/21 03:36:43;;;;;;;3.83;2.40;;;4.50;52.40;;;;;;6218817;23;20027;-76
2021/03/21 03:39:08;;;;;;;4.47;2.57;;;4.50;52.50;;;;;;6217918;23;19996;-76
2021/03/21 03:41:43;;;;;;;6.90;2.50;;;4.40;53.10;;;;;;6218564;23;20054;-76
2021/03/21 03:44:09;;;;;;;4.60;2.73;;;4.40;53.10;;;;;;6218248;23;20011;-76
2021/03/21 03:46:50;;;;;;;11.90;3.07;;;4.40;53.60;;;;;;6245702;22;20016;-77
2021/03/21 03:49:28;;;;;;;5.32;2.78;;;4.40;53.30;;;;;;6218869;23;20323;-76
2021/03/21 03:52:18;;;;;;;7.63;3.00;;;4.50;53.10;;;;;;6217718;23;20004;-77
2021/03/21 03:54:59;;;;;;;5.27;2.73;;;4.50;53.40;;;;;;6218793;23;20000;-77
2021/03/21 03:57:38;;;;;;;7.63;3.20;;;4.50;53.60;;;;;;6245686;23;20000;-76
2021/03/21 04:00:19;;;;;;;5.67;3.00;;;4.50;53.60;;;;;;6217785;23;20075;-77
2021/03/21 04:03:10;;;;;;;4.20;2.80;;;4.50;53.80;;;;;;6244906;23;20008;-77
2021/03/21 04:06:00;;;;;;;6.07;3.40;;;4.50;54.20;;;;;;6218642;23;20435;-77
2021/03/21 04:08:51;;;;;;;5.90;2.93;;;4.50;54.20;;;;;;6208915;23;20004;-77
2021/03/21 04:11:44;;;;;;;6.17;3.27;;;4.40;54.80;;;;;;6218943;23;20047;-77
2021/03/21 04:14:25;;;;;;;8.07;3.37;;;4.40;55.40;;;;;;6216495;23;20000;-77
2021/03/21 04:17:07;;;;;;;7.20;3.60;;;4.40;55.10;;;;;;6217731;23;20146;-77
2021/03/21 04:19:41;;;;;;;11.93;3.70;;;4.40;55.30;;;;;;6191466;23;20051;-77
2021/03/21 04:22:15;;;;;;;9.33;4.23;;;4.40;55.20;;;;;;6243983;23;20007;-77
2021/03/21 04:24:49;;;;;;;6.47;3.77;;;4.40;55.50;;;;;;6218771;23;20081;-77
2021/03/21 04:27:20;;;;;;;7.73;3.40;;;4.30;55.80;;;;;;6218728;23;20095;-77
2021/03/21 04:30:08;;;;;;;6.27;3.40;;;4.30;55.80;;;;;;6218471;23;20091;-77
2021/03/21 04:32:45;;;;;;;8.00;3.93;;;4.30;56.10;;;;;;6217933;23;20030;-76
2021/03/21 04:35:31;;;;;;;7.53;3.30;;;4.30;56.30;;;;;;6217545;23;20490;-77
2021/03/21 04:38:06;;;;;;;6.97;3.37;;;4.30;56.10;;;;;;6244096;23;20003;-76
2021/03/21 04:40:32;;;;;;;6.73;3.10;;;4.30;56.50;;;;;;6218739;23;20011;-76
2021/03/21 04:43:12;;;;;;;8.53;4.00;;;4.30;56.10;;;;;;6216541;23;20012;-76
2021/03/21 04:46:04;;;;;;;6.30;3.00;;;4.30;56.00;;;;;;6218013;23;20020;-77
2021/03/21 04:48:29;;;;;;;6.90;3.40;;;4.30;55.70;;;;;;6244931;23;20098;-76
2021/03/21 04:51:10;;;;;;;5.13;3.10;;;4.20;55.80;;;;;;6217025;23;20450;-76
2021/03/21 04:54:03;;;;;;;6.23;3.10;;;4.30;55.10;;;;;;6244745;23;20050;-77
2021/03/21 04:56:38;;;;;;;4.77;2.70;;;4.20;55.20;;;;;;6202572;23;20055;-76
2021/03/21 04:59:16;;;;;;;7.30;3.30;;;4.20;55.00;;;;;;6217401;23;20026;-76
2021/03/21 05:01:45;;;;;;;6.27;2.90;;;4.20;55.60;;;;;;6245001;23;20000;-76
2021/03/21 05:04:18;;;;;;;6.37;2.83;;;4.20;55.30;;;;;;6217209;23;20320;-76
2021/03/21 05:06:52;;;;;;;5.03;2.93;;;4.20;55.20;;;;;;6244930;23;20043;-76
2021/03/21 05:09:40;;;;;;;9.57;2.83;;;4.30;55.40;;;;;;6218307;23;20008;-76
2021/03/21 05:12:33;;;;;;;5.33;2.80;;;4.30;55.40;;;;;;6244107;23;20011;-77
2021/03/21 05:15:24;;;;;;;5.33;3.10;;;4.20;55.60;;;;;;6197354;23;20008;-77
2021/03/21 05:18:22;;;;;;;4.67;2.60;;;4.30;55.70;;;;;;6218094;23;20008;-77
2021/03/21 05:21:06;;;;;;;5.97;3.03;;;4.30;55.80;;;;;;6218298;23;20078;-77
2021/03/21 05:23:42;;;;;;;3.40;2.30;;;4.30;55.70;;;;;;6218429;23;20431;-77
2021/03/21 05:26:26;;;;;;;6.33;2.83;;;4.30;56.00;;;;;;6217551;23;20410;-77
2021/03/21 05:29:47;;;;;;;4.87;3.10;;;4.30;55.70;;;;;;6244546;23;19993;-76
2021/03/21 05:32:15;;;;;;;5.17;2.77;;;4.40;56.00;;;;;;6169134;23;20455;-76
2021/03/21 05:34:42;;;;;;;7.27;2.90;;;4.40;56.00;;;;;;6218181;23;19996;-77
2021/03/21 05:37:38;;;;;;;6.30;2.97;;;4.40;56.20;;;;;;6217058;23;20035;-77
2021/03/21 05:40:50;;;;;;;5.13;3.00;;;4.40;56.40;;;;;;6243932;23;19996;-76
2021/03/21 05:43:49;;;;;;;6.87;3.33;;;4.40;56.30;;;;;;6217268;23;20016;-76
2021/03/21 05:47:05;;;;;;;6.17;2.80;;;4.40;56.40;;;;;;6216903;23;20074;-77
2021/03/21 05:49:42;;;;;;;4.80;2.80;;;4.30;56.30;;;;;;6093178;23;20002;-77
2021/03/21 05:52:38;;;;;;;4.27;2.53;;;4.30;56.60;;;;;;6068373;23;20504;-76
2021/03/21 05:55:18;;;;;;;6.63;2.77;;;4.30;57.00;;;;;;6070162;23;20010;-76
2021/03/21 05:58:21;;;;;;;7.87;2.77;;;4.30;57.20;;;;;;6071290;23;20007;-76
2021/03/21 06:01:14;;;;;;;5.80;2.47;;;4.30;57.40;;;;;;6070742;23;20009;-77
2021/03/21 06:04:10;;;;;;;5.53;2.70;;;4.30;57.30;;;;;;6071083;23;20006;-76
2021/03/21 06:06:57;;;;;;;5.33;3.00;;;4.30;57.30;;;;;;6071200;23;20028;-76
2021/03/21 06:09:22;;;;;;;4.10;2.80;;;4.30;57.20;;;;;;6071086;23;20078;-76
2021/03/21 06:12:12;;;;;;;6.40;3.23;;;4.30;57.30;;;;;;6070917;23;20003;-77
2021/03/21 06:14:53;;;;;;;4.93;3.13;;;4.40;57.50;;;;;;6070719;23;20058;-76
2021/03/21 06:17:56;;;;;;;7.40;3.43;;;4.40;57.30;;;;;;6070501;23;20017;-76
2021/03/21 06:20:37;;;;;;;6.47;3.30;;;4.30;57.40;;;;;;6148995;23;20048;-76
2021/03/21 06:23:28;;;;;;;7.97;3.53;;;4.30;57.60;;;;;;6218919;23;20008;-77
2021/03/21 06:26:15;;;;;;;6.37;3.40;;;4.40;57.30;;;;;;6245970;23;20529;-76
2021/03/21 06:29:07;;;;;;;6.67;3.10;;;4.40;57.40;;;;;;6219767;23;20079;-76
2021/03/21 06:31:41;;;;;;;5.57;3.30;;;4.40;56.30;;;;;;6246450;23;20004;-76
2021/03/21 06:34:31;;;;;;;8.27;3.40;;;4.40;56.40;;;;;;6218845;23;20011;-76
2021/03/21 06:37:03;;;;;;;7.93;3.30;;;4.40;56.20;;;;;;6218988;23;20435;-76
2021/03/21 06:39:47;;;;;;;6.63;3.55;;;4.40;56.10;;;;;;6219735;23;20007;-76
2021/03/21 06:42:19;;;;;;;6.53;3.20;;;4.40;56.30;;;;;;6218353;23;20008;-76
2021/03/21 06:44:53;;;;;;;5.22;3.30;;;4.30;56.50;;;;;;6219239;23;20012;-77
2021/03/21 06:47:31;;;;;;;7.27;3.63;;;4.30;56.60;;;;;;6245122;23;20008;-77
2021/03/21 06:50:41;;;;;;;7.87;3.53;;;4.30;56.50;;;;;;6245382;23;20003;-76
2021/03/21 06:53:36;;;;;;;8.30;3.77;;;4.40;56.40;;;;;;6218445;23;20007;-76
2021/03/21 06:56:25;;;;;;;6.60;3.50;;;4.40;57.00;;;;;;6218524;23;20007;-77
2021/03/21 06:59:10;;;;;;;6.70;3.40;;;4.40;57.20;;;;;;6218966;23;20004;-76
2021/03/21 07:01:58;;;;;;;5.93;3.20;;;4.40;56.90;;;;;;6219570;23;20012;-76
2021/03/21 07:05:22;;;;;;;9.13;3.70;;;4.50;56.90;;;;;;6219025;23;20000;-77
2021/03/21 07:08:13;;;;;;;6.50;3.00;;;4.50;56.50;;;;;;6211426;23;20565;-76
2021/03/21 07:10:42;;;;;;;5.60;3.03;;;4.50;56.40;;;;;;6219345;23;20008;-76
2021/03/21 07:13:26;;;;;;;8.97;2.97;;;4.50;56.50;;;;;;6218134;23;19996;-76
2021/03/21 07:16:25;;;;;;;6.30;2.97;;;4.50;56.40;;;;;;6219225;23;20012;-76
2021/03/21 07:19:16;;;;;;;5.43;3.33;;;4.60;56.70;;;;;;6245833;23;20045;-76
2021/03/21 07:22:05;;;;;;;5.07;2.77;;;4.50;56.80;;;;;;6218943;23;20012;-76
2021/03/21 07:24:45;;;;;;;5.17;2.70;;;4.50;56.60;;;;;;6219066;23;20007;-76
2021/03/21 07:27:31;;;;;;;5.87;3.00;;;4.60;56.60;;;;;;6244605;23;20035;-76
2021/03/21 07:30:15;;;;;;;5.53;2.90;;;4.60;56.40;;;;;;6218987;23;20103;-76
2021/03/21 07:33:08;;;;;;;4.17;2.47;;;4.70;56.40;;;;;;6218708;23;20091;-76
2021/03/21 07:35:51;;;;;;;4.05;2.78;;;4.70;56.00;;;;;;6219224;23;19996;-76
2021/03/21 07:38:57;;;;;;;6.50;3.17;;;4.60;56.00;;;;;;6217929;23;20000;-76
2021/03/21 07:41:47;;;;;;;7.87;3.23;;;4.60;55.90;;;;;;6244847;23;20415;-76
2021/03/21 07:44:38;;;;;;;6.43;3.10;;;4.70;56.00;;;;;;6217842;23;20077;-76
2021/03/21 07:47:25;;;;;;;7.87;3.20;;;4.80;56.20;;;;;;6244442;23;20017;-76
2021/03/21 07:50:02;;;;;;;5.53;3.10;;;4.80;55.60;;;;;;6219239;23;20078;-76
2021/03/21 07:52:52;;;;;;;7.90;3.07;;;4.80;55.50;;;;;;6219003;23;20000;-76
2021/03/21 07:55:42;;;;;;;5.43;2.87;;;4.90;55.30;;;;;;6217687;23;20000;-77
2021/03/21 07:58:25;;;;;;;3.77;2.67;;;4.80;55.60;;;;;;6218110;23;20030;-76
2021/03/21 08:00:52;;;;;;;6.27;2.80;;;4.90;55.80;;;;;;6218758;23;20003;-77
2021/03/21 08:03:36;;;;;;;5.63;2.63;;;4.90;55.40;;;;;;6217755;23;20004;-76
2021/03/21 08:06:04;;;;;;;7.03;3.40;;;5.00;55.40;;;;;;6218419;23;20000;-76
2021/03/21 08:08:35;;;;;;;16.90;7.10;;;5.00;55.50;;;;;;6218764;23;20004;-76
2021/03/21 08:11:04;;;;;;;33.47;12.83;;;5.20;55.60;;;;;;6217804;23;20082;-76
2021/03/21 08:13:45;;;;;;;6.53;3.30;;;5.20;54.80;;;;;;6217867;23;20005;-77
2021/03/21 08:16:27;;;;;;;6.47;3.00;;;5.10;54.40;;;;;;6217572;23;20434;-76
2021/03/21 08:18:53;;;;;;;5.85;3.00;;;5.10;55.10;;;;;;6218467;23;20000;-77
2021/03/21 08:21:32;;;;;;;7.63;3.07;;;5.10;55.00;;;;;;6216620;23;20008;-76
2021/03/21 08:24:10;;;;;;;4.83;2.87;;;5.20;54.70;;;;;;6217974;23;20008;-77
2021/03/21 08:26:37;;;;;;;5.97;3.10;;;5.20;54.80;;;;;;6245261;23;20007;-77
2021/03/21 08:29:05;;;;;;;8.47;3.00;;;5.10;54.60;;;;;;6244492;23;20007;-76
2021/03/21 08:32:00;;;;;;;4.80;2.87;;;5.20;54.70;;;;;;6218055;23;20033;-77
2021/03/21 08:34:34;;;;;;;6.20;3.03;;;5.20;54.40;;;;;;6200939;23;20040;-77
2021/03/21 08:37:21;;;;;;;6.00;2.93;;;5.20;54.90;;;;;;6218618;23;20008;-78
2021/03/21 08:39:53;;;;;;;5.33;2.97;;;5.20;55.30;;;;;;6218312;23;20000;-77
2021/03/21 08:42:22;;;;;;;6.75;3.10;;;5.20;55.40;;;;;;6243688;23;20416;-77
2021/03/21 08:44:48;;;;;;;4.93;3.00;;;5.20;56.20;;;;;;6217678;23;20083;-76
2021/03/21 08:47:20;;;;;;;5.47;3.30;;;5.20;55.80;;;;;;6217205;23;20432;-76
2021/03/21 08:49:49;;;;;;;5.53;3.33;;;5.30;55.90;;;;;;6244551;23;20028;-76
2021/03/21 08:52:32;;;;;;;4.20;2.73;;;5.30;55.80;;;;;;6217190;23;20339;-76
2021/03/21 08:55:02;;;;;;;7.37;3.33;;;5.30;55.80;;;;;;6244768;23;19996;-76
2021/03/21 08:57:32;;;;;;;6.60;3.07;;;5.40;56.00;;;;;;6217600;23;20000;-76
2021/03/21 09:00:27;;;;;;;5.57;3.23;;;5.40;55.60;;;;;;6218016;23;20366;-76
2021/03/21 09:02:53;;;;;;;7.30;2.97;;;5.50;55.70;;;;;;6211682;23;20012;-76
2021/03/21 09:05:21;;;;;;;6.07;2.87;;;5.40;55.50;;;;;;6217059;23;20003;-76
2021/03/21 09:07:49;;;;;;;6.53;3.33;;;5.50;55.80;;;;;;6217985;23;20419;-76
2021/03/21 09:10:24;;;;;;;4.90;2.77;;;5.60;55.60;;;;;;6243701;23;20004;-76
2021/03/21 09:12:55;;;;;;;5.70;3.30;;;5.70;55.70;;;;;;6217769;23;20011;-76
2021/03/21 09:15:41;;;;;;;7.63;3.20;;;5.70;55.80;;;;;;6217036;23;20043;-76
2021/03/21 09:18:18;;;;;;;5.03;2.83;;;5.80;55.70;;;;;;6216296;23;20027;-77
2021/03/21 09:20:45;;;;;;;6.23;2.93;;;5.80;56.10;;;;;;6218467;23;20374;-76
2021/03/21 09:23:26;;;;;;;14.23;7.13;;;5.70;56.10;;;;;;6217123;23;20032;-77
2021/03/21 09:25:55;;;;;;;13.27;6.60;;;5.70;56.40;;;;;;6217777;23;20000;-77
2021/03/21 09:28:22;;;;;;;9.50;4.50;;;5.80;56.50;;;;;;6217447;23;20415;-77
2021/03/21 09:30:48;;;;;;;7.20;3.90;;;5.80;56.40;;;;;;6220112;23;20035;-77
2021/03/21 09:33:27;;;;;;;8.90;3.70;;;5.90;56.40;;;;;;6218745;23;20415;-76
2021/03/21 09:36:23;;;;;;;8.77;4.10;;;5.90;56.50;;;;;;6246788;23;19993;-76
2021/03/21 09:38:59;;;;;;;7.77;4.03;;;6.00;56.60;;;;;;6219894;23;20007;-77
2021/03/21 09:41:25;;;;;;;7.23;3.83;;;5.90;57.30;;;;;;6245698;23;20098;-76
2021/03/21 09:43:52;;;;;;;5.67;3.53;;;6.00;57.10;;;;;;6247015;23;19996;-75
2021/03/21 09:46:21;;;;;;;10.43;3.87;;;6.00;57.80;;;;;;6216056;23;20021;-74
2021/03/21 09:48:50;;;;;;;7.33;3.80;;;6.00;58.00;;;;;;6215688;23;20423;-75
2021/03/21 09:51:30;;;;;;;10.23;4.30;;;6.00;58.50;;;;;;6213171;23;20035;-74
2021/03/21 09:54:18;;;;;;;6.30;3.83;;;6.00;58.80;;;;;;6214344;23;20004;-75
2021/03/21 09:57:19;;;;;;;6.33;4.03;;;6.00;58.50;;;;;;6214579;23;19996;-74
2021/03/21 09:59:55;;;;;;;8.77;4.47;;;5.90;58.90;;;;;;6214824;23;20107;-75
2021/03/21 10:02:42;;;;;;;6.57;4.03;;;5.90;59.50;;;;;;6213924;23;20336;-73
2021/03/21 10:05:30;;;;;;;6.87;4.30;;;5.90;59.90;;;;;;6214372;23;20091;-76
2021/03/21 10:08:05;;;;;;;7.60;4.23;;;5.80;60.00;;;;;;6214611;23;20461;-74
2021/03/21 10:10:43;;;;;;;7.03;3.90;;;5.80;59.70;;;;;;6214664;23;20011;-73
2021/03/21 10:13:26;;;;;;;6.80;4.20;;;5.80;62.00;;;;;;6215187;23;20416;-74
2021/03/21 10:16:10;;;;;;;6.33;3.83;;;5.80;62.40;;;;;;6214668;23;20009;-72
2021/03/21 10:19:34;;;;;;;7.83;4.10;;;5.80;63.00;;;;;;6212562;23;20001;-72
2021/03/21 10:22:00;;;;;;;8.00;3.90;;;5.80;62.70;;;;;;6094231;23;20011;-74
2021/03/21 10:24:26;;;;;;;8.80;4.40;;;5.70;62.60;;;;;;6069241;23;20219;-75
2021/03/21 10:27:21;;;;;;;7.87;4.17;;;5.80;63.00;;;;;;6071048;23;20350;-77
2021/03/21 10:29:49;;;;;;;9.53;4.60;;;5.80;63.90;;;;;;6068765;23;20006;-75
2021/03/21 10:32:21;;;;;;;9.10;4.90;;;5.80;64.10;;;;;;6068020;23;20014;-74
2021/03/21 10:34:49;;;;;;;8.43;4.70;;;5.70;65.10;;;;;;6094445;23;20003;-75
2021/03/21 10:37:42;;;;;;;9.47;4.90;;;5.70;66.50;;;;;;6068598;23;20069;-76
2021/03/21 10:40:23;;;;;;;9.00;4.93;;;5.60;68.90;;;;;;6069606;23;20137;-75
2021/03/21 10:42:57;;;;;;;8.50;4.53;;;5.50;69.20;;;;;;6093984;23;20011;-74
2021/03/21 10:45:34;;;;;;;7.87;4.77;;;5.60;69.50;;;;;;6069320;23;20128;-75
2021/03/21 10:48:03;;;;;;;10.77;4.90;;;5.60;69.60;;;;;;6093941;23;20009;-74
2021/03/21 10:50:29;;;;;;;20.23;10.20;;;5.70;69.40;;;;;;6093439;23;20005;-74
2021/03/21 10:53:16;;;;;;;65.10;25.37;;;5.70;68.50;;;;;;6174861;23;20016;-74
2021/03/21 10:55:58;;;;;;;10.47;5.70;;;5.80;68.60;;;;;;6219145;23;20007;-74
2021/03/21 10:58:36;;;;;;;9.80;5.37;;;5.90;68.20;;;;;;6245074;23;20062;-74
2021/03/21 11:01:17;;;;;;;10.23;4.77;;;6.00;67.00;;;;;;6245465;23;20007;-74
2021/03/21 11:03:45;;;;;;;9.83;5.30;;;6.00;67.30;;;;;;6218925;23;20004;-74
2021/03/21 11:06:20;;;;;;;10.90;5.07;;;6.10;67.20;;;;;;6218321;23;20082;-75
2021/03/21 11:08:47;;;;;;;10.53;5.67;;;6.10;67.10;;;;;;6245791;23;20007;-74
2021/03/21 11:11:19;;;;;;;7.87;5.03;;;6.30;67.30;;;;;;6218109;23;20000;-74
2021/03/21 11:13:45;;;;;;;;;;;6.30;67.60;;;;;;6245849;23;19992;-74
2021/03/21 11:16:24;;;;;;;8.63;4.70;;;6.40;67.50;;;;;;6218027;23;19907;-76
2021/03/21 11:18:53;;;;;;;7.37;4.73;;;6.50;67.10;;;;;;6218948;23;20006;-74
2021/03/21 11:21:18;;;;;;;9.07;4.60;;;6.50;66.60;;;;;;6217896;23;20008;-74
2021/03/21 11:23:46;;;;;;;9.73;4.73;;;6.60;66.90;;;;;;6218676;23;20027;-74
2021/03/21 11:26:35;;;;;;;9.57;5.17;;;6.70;66.90;;;;;;6217956;23;20407;-75
2021/03/21 11:29:04;;;;;;;8.33;5.20;;;6.70;67.10;;;;;;6245210;23;20439;-74
2021/03/21 11:31:36;;;;;;;8.63;5.23;;;6.70;66.40;;;;;;6218012;23;20062;-75
2021/03/21 11:34:22;;;;;;;;;;;6.70;67.20;;;;;;6219215;23;20059;-75
2021/03/21 11:37:06;;;;;;;21.90;11.10;;;6.70;67.40;;;;;;6217394;23;19900;-75
2021/03/21 11:39:40;;;;;;;11.77;6.17;;;6.60;67.00;;;;;;6244967;23;20011;-75
2021/03/21 11:42:26;;;;;;;9.37;5.47;;;6.60;66.50;;;;;;6218471;23;20403;-74
2021/03/21 11:45:12;;;;;;;9.83;5.10;;;6.80;66.90;;;;;;6245101;23;20016;-75
2021/03/21 11:47:40;;;;;;;10.67;5.30;;;6.90;65.90;;;;;;6219116;23;20415;-74
2021/03/21 11:50:14;;;;;;;13.00;5.87;;;7.00;65.50;;;;;;6245056;23;20004;-75
2021/03/21 11:52:40;;;;;;;9.17;5.30;;;7.20;64.90;;;;;;6218130;23;20023;-74
2021/03/21 11:55:07;;;;;;;9.07;5.07;;;7.30;64.90;;;;;;6218557;23;20030;-73
2021/03/21 11:57:43;;;;;;;9.73;5.10;;;7.20;64.70;;;;;;6217655;23;20000;-73
2021/03/21 12:00:22;;;;;;;9.37;4.97;;;7.00;65.00;;;;;;6218322;23;20000;-75
2021/03/21 12:02:58;;;;;;;7.50;4.83;;;6.90;65.30;;;;;;6218062;23;20004;-74
2021/03/21 12:05:28;;;;;;;9.97;5.23;;;6.70;66.40;;;;;;6217767;23;20000;-74
2021/03/21 12:08:25;;;;;;;8.27;5.43;;;6.60;66.90;;;;;;6218481;23;20496;-73
2021/03/21 12:10:52;;;;;;;9.10;5.30;;;6.50;67.80;;;;;;6217134;23;20404;-74
2021/03/21 12:13:39;;;;;;;10.67;5.60;;;6.30;68.00;;;;;;6217349;23;20008;-74
2021/03/21 12:16:25;;;;;;;12.27;6.43;;;6.30;68.80;;;;;;6218070;23;20032;-74
2021/03/21 12:18:57;;;;;;;9.87;5.80;;;6.30;68.90;;;;;;6244520;23;20419;-77
2021/03/21 12:21:23;;;;;;;10.25;5.70;;;6.20;69.40;;;;;;6244457;23;20000;-74
2021/03/21 12:24:03;;;;;;;9.03;5.70;;;6.20;69.90;;;;;;6245159;23;20000;-76
2021/03/21 12:26:32;;;;;;;13.17;6.70;;;6.20;70.70;;;;;;6218129;23;20011;-74
2021/03/21 12:28:57;;;;;;;10.53;5.90;;;6.30;70.80;;;;;;6218562;23;20000;-74
2021/03/21 12:31:38;;;;;;;11.27;5.80;;;6.50;70.50;;;;;;6217881;23;20427;-74
2021/03/21 12:34:33;;;;;;;9.43;5.70;;;6.50;70.00;;;;;;6218515;23;20011;-75
2021/03/21 12:37:05;;;;;;;10.40;5.90;;;6.50;70.30;;;;;;6218495;23;20004;-74
2021/03/21 12:39:32;;;;;;;;;;;6.50;69.90;;;;;;6218289;23;20020;-74
2021/03/21 12:41:58;;;;;;;10.03;5.73;;;6.50;70.30;;;;;;6217988;23;19915;-75
2021/03/21 12:44:30;;;;;;;11.00;5.97;;;6.60;69.90;;;;;;6217326;23;20457;-76
2021/03/21 12:47:01;;;;;;;14.20;6.20;;;6.70;69.20;;;;;;6213207;23;20025;-74
2021/03/21 12:49:50;;;;;;;10.30;6.17;;;6.70;69.10;;;;;;6212480;23;20029;-73
2021/03/21 12:52:31;;;;;;;9.60;6.10;;;6.80;69.00;;;;;;6212903;23;20009;-75
2021/03/21 12:54:57;;;;;;;8.97;5.53;;;6.90;68.70;;;;;;6213410;23;20004;-75
2021/03/21 12:57:23;;;;;;;10.10;5.53;;;7.10;67.90;;;;;;6214345;23;20454;-75
2021/03/21 12:59:51;;;;;;;11.57;6.33;;;7.10;67.50;;;;;;6213492;23;19997;-75
2021/03/21 13:02:21;;;;;;;9.93;5.63;;;7.00;67.50;;;;;;6214120;23;20131;-76
2021/03/21 13:04:48;;;;;;;9.80;5.83;;;7.00;67.90;;;;;;6212471;23;20054;-75
2021/03/21 13:07:14;;;;;;;10.00;5.90;;;7.10;67.70;;;;;;6213383;23;20007;-76
2021/03/21 13:09:41;;;;;;;13.47;6.50;;;7.10;67.70;;;;;;6213110;23;20035;-75
2021/03/21 13:12:07;;;;;;;12.00;6.73;;;7.10;67.90;;;;;;6213017;23;20008;-75
2021/03/21 13:14:33;;;;;;;13.27;6.80;;;7.20;67.60;;;;;;6213692;23;19997;-77
2021/03/21 13:16:59;;;;;;;11.30;6.27;;;7.10;67.90;;;;;;6213013;23;20015;-75
2021/03/21 13:19:24;;;;;;;12.30;7.00;;;7.10;68.70;;;;;;6213319;23;20432;-75
2021/03/21 13:21:50;;;;;;;10.37;6.20;;;7.10;68.90;;;;;;6212341;23;20432;-75
2021/03/21 13:24:16;;;;;;;12.07;6.67;;;7.00;69.10;;;;;;6214334;23;20019;-78
2021/03/21 13:26:41;;;;;;;12.90;6.40;;;6.90;69.50;;;;;;6213809;23;20080;-76
2021/03/21 13:29:07;;;;;;;10.80;6.20;;;6.90;70.20;;;;;;6212013;23;20001;-75
2021/03/21 13:31:33;;;;;;;10.07;6.50;;;6.90;70.70;;;;;;6211645;23;20011;-73
2021/03/21 13:33:59;;;;;;;44.37;18.93;;;6.80;70.80;;;;;;6213290;23;20000;-77
2021/03/21 13:36:25;;;;;;;64.13;26.03;;;6.80;71.10;;;;;;6212869;23;20000;-77
2021/03/21 13:38:51;;;;;;;14.20;7.70;;;6.80;71.50;;;;;;6214755;23;19997;-76
2021/03/21 13:41:17;;;;;;;12.93;7.17;;;6.70;71.10;;;;;;6214150;23;20011;-77
2021/03/21 13:43:42;;;;;;;11.57;6.87;;;6.70;71.50;;;;;;6213215;23;20083;-76
2021/03/21 13:46:08;;;;;;;9.90;6.20;;;6.60;71.70;;;;;;6218126;23;20382;-77
2021/03/21 13:48:35;;;;;;;12.43;6.57;;;6.70;71.50;;;;;;6217853;23;20020;-77